sensor_id;sensor_type;location;lat;lon;timestamp;P1;durP1;ratioP1;P2;durP2;ratioP2
73120;SDS011;61307;49.628;-1.624;2023-03-11T00:01:46;2.47;;;1.60;;
73120;SDS011;61307;49.628;-1.624;2023-03-11T00:04:13;1.85;;;1.42;;
73120;SDS011;61307;49.628;-1.624;2023-03-11T00:06:40;2.25;;;1.58;;
73120;SDS011;61307;49.628;-1.624;2023-03-11T00:09:09;1.75;;;1.38;;
73120;SDS011;61307;49.628;-1.624;2023-03-11T00:11:36;1.83;;;1.42;;
73120;SDS011;61307;49.628;-1.624;2023-03-11T00:14:03;1.83;;;1.23;;
73120;SDS011;61307;49.628;-1.624;2023-03-11T00:16:30;2.03;;;1.60;;
73120;SDS011;61307;49.628;-1.624;2023-03-11T00:18:57;2.40;;;1.70;;
73120;SDS011;61307;49.628;-1.624;2023-03-11T00:21:24;3.05;;;1.40;;
73120;SDS011;61307;49.628;-1.624;2023-03-11T00:23:51;2.30;;;1.25;;
73120;SDS011;61307;49.628;-1.624;2023-03-11T00:26:20;1.85;;;1.35;;
73120;SDS011;61307;49.628;-1.624;2023-03-11T00:28:47;3.92;;;1.63;;
73120;SDS011;61307;49.628;-1.624;2023-03-11T00:31:14;1.52;;;1.33;;
73120;SDS011;61307;49.628;-1.624;2023-03-11T00:33:41;1.88;;;1.40;;
73120;SDS011;61307;49.628;-1.624;2023-03-11T00:36:11;1.23;;;1.10;;
73120;SDS011;61307;49.628;-1.624;2023-03-11T00:38:46;1.88;;;1.35;;
73120;SDS011;61307;49.628;-1.624;2023-03-11T00:41:13;1.38;;;1.27;;
73120;SDS011;61307;49.628;-1.624;2023-03-11T00:43:42;1.83;;;1.42;;
73120;SDS011;61307;49.628;-1.624;2023-03-11T00:46:09;1.55;;;1.30;;
73120;SDS011;61307;49.628;-1.624;2023-03-11T00:48:36;2.47;;;1.30;;
73120;SDS011;61307;49.628;-1.624;2023-03-11T00:51:05;2.05;;;1.23;;
73120;SDS011;61307;49.628;-1.624;2023-03-11T00:53:32;1.35;;;1.20;;
73120;SDS011;61307;49.628;-1.624;2023-03-11T00:56:04;1.38;;;1.15;;
73120;SDS011;61307;49.628;-1.624;2023-03-11T00:58:32;2.13;;;1.33;;
73120;SDS011;61307;49.628;-1.624;2023-03-11T01:01:01;1.50;;;1.20;;
73120;SDS011;61307;49.628;-1.624;2023-03-11T01:03:33;1.92;;;1.30;;
73120;SDS011;61307;49.628;-1.624;2023-03-11T01:06:00;1.58;;;1.30;;
73120;SDS011;61307;49.628;-1.624;2023-03-11T01:08:27;1.35;;;1.20;;
73120;SDS011;61307;49.628;-1.624;2023-03-11T01:10:55;1.35;;;1.00;;
73120;SDS011;61307;49.628;-1.624;2023-03-11T01:13:23;2.08;;;1.08;;
73120;SDS011;61307;49.628;-1.624;2023-03-11T01:15:51;1.25;;;1.10;;
73120;SDS011;61307;49.628;-1.624;2023-03-11T01:18:19;1.63;;;1.10;;
73120;SDS011;61307;49.628;-1.624;2023-03-11T01:20:46;1.45;;;1.00;;
73120;SDS011;61307;49.628;-1.624;2023-03-11T01:23:15;1.40;;;1.13;;
73120;SDS011;61307;49.628;-1.624;2023-03-11T01:25:42;1.30;;;1.10;;
73120;SDS011;61307;49.628;-1.624;2023-03-11T01:28:10;2.95;;;1.25;;
73120;SDS011;61307;49.628;-1.624;2023-03-11T01:30:38;3.20;;;1.50;;
73120;SDS011;61307;49.628;-1.624;2023-03-11T01:33:07;1.25;;;0.88;;
73120;SDS011;61307;49.628;-1.624;2023-03-11T01:35:40;1.83;;;1.23;;
73120;SDS011;61307;49.628;-1.624;2023-03-11T01:38:07;1.88;;;1.10;;
73120;SDS011;61307;49.628;-1.624;2023-03-11T01:40:35;1.88;;;1.25;;
73120;SDS011;61307;49.628;-1.624;2023-03-11T01:43:05;1.38;;;1.27;;
73120;SDS011;61307;49.628;-1.624;2023-03-11T01:46:07;1.85;;;1.17;;
73120;SDS011;61307;49.628;-1.624;2023-03-11T01:48:36;1.20;;;1.10;;
73120;SDS011;61307;49.628;-1.624;2023-03-11T01:51:05;2.13;;;1.40;;
73120;SDS011;61307;49.628;-1.624;2023-03-11T01:53:33;1.42;;;1.25;;
73120;SDS011;61307;49.628;-1.624;2023-03-11T01:56:00;1.38;;;1.13;;
73120;SDS011;61307;49.628;-1.624;2023-03-11T01:58:31;1.88;;;1.38;;
73120;SDS011;61307;49.628;-1.624;2023-03-11T02:01:01;2.85;;;1.20;;
73120;SDS011;61307;49.628;-1.624;2023-03-11T02:03:30;1.15;;;1.05;;
73120;SDS011;61307;49.628;-1.624;2023-03-11T02:05:59;2.53;;;1.25;;
73120;SDS011;61307;49.628;-1.624;2023-03-11T02:08:29;1.48;;;1.27;;
73120;SDS011;61307;49.628;-1.624;2023-03-11T02:10:58;1.17;;;1.08;;
73120;SDS011;61307;49.628;-1.624;2023-03-11T02:13:27;1.45;;;1.10;;
73120;SDS011;61307;49.628;-1.624;2023-03-11T02:15:55;2.38;;;1.30;;
73120;SDS011;61307;49.628;-1.624;2023-03-11T02:18:24;2.33;;;1.20;;
73120;SDS011;61307;49.628;-1.624;2023-03-11T02:20:53;1.92;;;1.30;;
73120;SDS011;61307;49.628;-1.624;2023-03-11T02:23:29;1.60;;;1.00;;
73120;SDS011;61307;49.628;-1.624;2023-03-11T02:26:03;3.03;;;1.35;;
73120;SDS011;61307;49.628;-1.624;2023-03-11T02:28:39;1.15;;;0.90;;
73120;SDS011;61307;49.628;-1.624;2023-03-11T02:31:08;1.30;;;1.20;;
73120;SDS011;61307;49.628;-1.624;2023-03-11T02:33:36;2.95;;;1.20;;
73120;SDS011;61307;49.628;-1.624;2023-03-11T02:36:03;1.20;;;1.10;;
73120;SDS011;61307;49.628;-1.624;2023-03-11T02:38:31;1.30;;;1.20;;
73120;SDS011;61307;49.628;-1.624;2023-03-11T02:40:58;1.65;;;1.20;;
73120;SDS011;61307;49.628;-1.624;2023-03-11T02:43:28;2.17;;;1.20;;
73120;SDS011;61307;49.628;-1.624;2023-03-11T02:46:02;1.20;;;1.10;;
73120;SDS011;61307;49.628;-1.624;2023-03-11T02:48:31;2.00;;;1.13;;
73120;SDS011;61307;49.628;-1.624;2023-03-11T02:51:00;1.15;;;1.05;;
73120;SDS011;61307;49.628;-1.624;2023-03-11T02:53:29;1.70;;;1.30;;
73120;SDS011;61307;49.628;-1.624;2023-03-11T02:56:00;2.35;;;1.30;;
73120;SDS011;61307;49.628;-1.624;2023-03-11T02:58:28;1.25;;;1.10;;
73120;SDS011;61307;49.628;-1.624;2023-03-11T03:00:55;2.63;;;1.20;;
73120;SDS011;61307;49.628;-1.624;2023-03-11T03:03:23;2.40;;;1.23;;
73120;SDS011;61307;49.628;-1.624;2023-03-11T03:05:50;1.23;;;1.13;;
73120;SDS011;61307;49.628;-1.624;2023-03-11T03:08:17;2.08;;;1.20;;
73120;SDS011;61307;49.628;-1.624;2023-03-11T03:10:44;1.52;;;1.25;;
73120;SDS011;61307;49.628;-1.624;2023-03-11T03:13:11;2.20;;;1.13;;
73120;SDS011;61307;49.628;-1.624;2023-03-11T03:15:38;1.90;;;1.45;;
73120;SDS011;61307;49.628;-1.624;2023-03-11T03:18:05;1.33;;;1.10;;
73120;SDS011;61307;49.628;-1.624;2023-03-11T03:20:34;2.67;;;1.38;;
73120;SDS011;61307;49.628;-1.624;2023-03-11T03:23:01;2.45;;;1.30;;
73120;SDS011;61307;49.628;-1.624;2023-03-11T03:25:29;1.95;;;1.20;;
73120;SDS011;61307;49.628;-1.624;2023-03-11T15:12:38;8.48;;;1.30;;
73120;SDS011;61307;49.628;-1.624;2023-03-11T15:15:20;3.10;;;1.40;;
73120;SDS011;61307;49.628;-1.624;2023-03-11T15:17:53;2.45;;;1.67;;
73120;SDS011;61307;49.628;-1.624;2023-03-11T15:20:38;3.38;;;1.50;;
73120;SDS011;61307;49.628;-1.624;2023-03-11T15:23:05;2.10;;;1.42;;
73120;SDS011;61307;49.628;-1.624;2023-03-11T15:25:48;1.83;;;1.70;;
73120;SDS011;61307;49.628;-1.624;2023-03-11T15:28:20;1.42;;;1.33;;
73120;SDS011;61307;49.628;-1.624;2023-03-11T15:30:49;4.88;;;1.45;;
73120;SDS011;61307;49.628;-1.624;2023-03-11T15:33:21;9.00;;;1.48;;
73120;SDS011;61307;49.628;-1.624;2023-03-11T15:35:49;3.45;;;1.60;;
73120;SDS011;61307;49.628;-1.624;2023-03-11T15:38:19;1.90;;;1.25;;
73120;SDS011;61307;49.628;-1.624;2023-03-11T15:40:55;4.22;;;1.67;;
73120;SDS011;61307;49.628;-1.624;2023-03-11T15:43:26;1.48;;;1.30;;
73120;SDS011;61307;49.628;-1.624;2023-03-11T15:45:57;1.45;;;1.15;;
73120;SDS011;61307;49.628;-1.624;2023-03-11T15:48:28;1.77;;;1.40;;
73120;SDS011;61307;49.628;-1.624;2023-03-11T15:51:04;2.45;;;1.35;;
73120;SDS011;61307;49.628;-1.624;2023-03-11T15:53:39;3.08;;;1.55;;
73120;SDS011;61307;49.628;-1.624;2023-03-11T15:56:11;2.00;;;1.60;;
73120;SDS011;61307;49.628;-1.624;2023-03-11T15:58:46;4.38;;;1.50;;
73120;SDS011;61307;49.628;-1.624;2023-03-11T16:01:17;1.95;;;1.48;;
73120;SDS011;61307;49.628;-1.624;2023-03-11T16:03:47;3.58;;;1.40;;
73120;SDS011;61307;49.628;-1.624;2023-03-11T16:06:15;2.15;;;1.30;;
73120;SDS011;61307;49.628;-1.624;2023-03-11T16:08:42;3.15;;;1.42;;
73120;SDS011;61307;49.628;-1.624;2023-03-11T16:11:12;1.40;;;1.30;;
73120;SDS011;61307;49.628;-1.624;2023-03-11T16:13:39;4.38;;;1.75;;
73120;SDS011;61307;49.628;-1.624;2023-03-11T16:16:07;1.55;;;1.40;;
73120;SDS011;61307;49.628;-1.624;2023-03-11T16:18:39;3.22;;;1.42;;
73120;SDS011;61307;49.628;-1.624;2023-03-11T16:21:07;2.28;;;1.52;;
73120;SDS011;61307;49.628;-1.624;2023-03-11T16:23:39;3.72;;;1.40;;
73120;SDS011;61307;49.628;-1.624;2023-03-11T16:26:06;1.85;;;1.63;;
73120;SDS011;61307;49.628;-1.624;2023-03-11T16:28:38;2.70;;;1.42;;
73120;SDS011;61307;49.628;-1.624;2023-03-11T16:31:05;4.15;;;1.52;;
73120;SDS011;61307;49.628;-1.624;2023-03-11T16:33:33;2.08;;;1.60;;
73120;SDS011;61307;49.628;-1.624;2023-03-11T16:36:01;3.15;;;1.38;;
73120;SDS011;61307;49.628;-1.624;2023-03-11T16:38:28;1.98;;;1.77;;
73120;SDS011;61307;49.628;-1.624;2023-03-11T16:40:56;2.15;;;1.40;;
73120;SDS011;61307;49.628;-1.624;2023-03-11T16:43:25;1.45;;;1.35;;
73120;SDS011;61307;49.628;-1.624;2023-03-11T16:45:54;1.63;;;1.52;;
73120;SDS011;61307;49.628;-1.624;2023-03-11T16:48:21;2.08;;;1.63;;
73120;SDS011;61307;49.628;-1.624;2023-03-11T16:50:49;2.60;;;2.00;;
73120;SDS011;61307;49.628;-1.624;2023-03-11T16:53:17;1.80;;;1.42;;
73120;SDS011;61307;49.628;-1.624;2023-03-11T16:55:46;1.50;;;1.40;;
73120;SDS011;61307;49.628;-1.624;2023-03-11T16:58:13;1.95;;;1.60;;
73120;SDS011;61307;49.628;-1.624;2023-03-11T17:00:41;1.98;;;1.60;;
73120;SDS011;61307;49.628;-1.624;2023-03-11T17:03:10;6.13;;;1.70;;
73120;SDS011;61307;49.628;-1.624;2023-03-11T17:05:38;3.97;;;1.92;;
73120;SDS011;61307;49.628;-1.624;2023-03-11T17:08:05;10.52;;;1.90;;
73120;SDS011;61307;49.628;-1.624;2023-03-11T17:10:34;2.28;;;1.75;;
73120;SDS011;61307;49.628;-1.624;2023-03-11T17:13:02;4.68;;;1.70;;
73120;SDS011;61307;49.628;-1.624;2023-03-11T17:15:29;2.92;;;1.63;;
73120;SDS011;61307;49.628;-1.624;2023-03-11T17:17:58;3.97;;;1.80;;
73120;SDS011;61307;49.628;-1.624;2023-03-11T17:20:27;6.05;;;1.70;;
73120;SDS011;61307;49.628;-1.624;2023-03-11T17:22:54;4.18;;;1.35;;
73120;SDS011;61307;49.628;-1.624;2023-03-11T17:25:21;2.70;;;1.98;;
73120;SDS011;61307;49.628;-1.624;2023-03-11T17:27:48;2.17;;;1.65;;
73120;SDS011;61307;49.628;-1.624;2023-03-11T17:32:44;2.55;;;1.52;;
73120;SDS011;61307;49.628;-1.624;2023-03-11T17:35:11;3.30;;;1.63;;
73120;SDS011;61307;49.628;-1.624;2023-03-11T17:37:39;2.30;;;1.65;;
73120;SDS011;61307;49.628;-1.624;2023-03-11T17:40:07;4.47;;;1.83;;
73120;SDS011;61307;49.628;-1.624;2023-03-11T17:42:37;5.40;;;2.03;;
73120;SDS011;61307;49.628;-1.624;2023-03-11T17:45:04;2.38;;;1.60;;
73120;SDS011;61307;49.628;-1.624;2023-03-11T17:47:33;1.80;;;1.70;;
73120;SDS011;61307;49.628;-1.624;2023-03-11T17:50:01;1.88;;;1.65;;
73120;SDS011;61307;49.628;-1.624;2023-03-11T17:52:28;2.38;;;2.00;;
73120;SDS011;61307;49.628;-1.624;2023-03-11T17:54:57;2.10;;;1.70;;
73120;SDS011;61307;49.628;-1.624;2023-03-11T17:57:24;5.32;;;1.85;;
73120;SDS011;61307;49.628;-1.624;2023-03-11T17:59:51;2.28;;;1.80;;
73120;SDS011;61307;49.628;-1.624;2023-03-11T18:02:18;2.78;;;2.20;;
73120;SDS011;61307;49.628;-1.624;2023-03-11T18:04:48;2.67;;;2.10;;
73120;SDS011;61307;49.628;-1.624;2023-03-11T18:07:16;3.83;;;2.28;;
73120;SDS011;61307;49.628;-1.624;2023-03-11T18:09:48;3.13;;;2.00;;
73120;SDS011;61307;49.628;-1.624;2023-03-11T18:12:18;3.08;;;2.58;;
73120;SDS011;61307;49.628;-1.624;2023-03-11T18:14:45;3.72;;;1.92;;
73120;SDS011;61307;49.628;-1.624;2023-03-11T18:17:12;2.70;;;2.17;;
73120;SDS011;61307;49.628;-1.624;2023-03-11T18:19:40;3.78;;;2.33;;
73120;SDS011;61307;49.628;-1.624;2023-03-11T18:22:07;2.38;;;1.85;;
73120;SDS011;61307;49.628;-1.624;2023-03-11T18:24:34;2.38;;;2.08;;
73120;SDS011;61307;49.628;-1.624;2023-03-11T18:27:01;2.95;;;2.20;;
73120;SDS011;61307;49.628;-1.624;2023-03-11T18:29:29;4.25;;;2.35;;
73120;SDS011;61307;49.628;-1.624;2023-03-11T18:31:56;4.40;;;2.17;;
73120;SDS011;61307;49.628;-1.624;2023-03-11T18:34:23;4.95;;;2.10;;
73120;SDS011;61307;49.628;-1.624;2023-03-11T18:36:50;3.83;;;2.55;;
73120;SDS011;61307;49.628;-1.624;2023-03-11T18:39:18;3.72;;;2.30;;
73120;SDS011;61307;49.628;-1.624;2023-03-11T18:41:45;3.95;;;2.50;;
73120;SDS011;61307;49.628;-1.624;2023-03-11T18:44:12;5.43;;;2.60;;
73120;SDS011;61307;49.628;-1.624;2023-03-11T18:46:40;4.55;;;2.50;;
73120;SDS011;61307;49.628;-1.624;2023-03-11T18:49:09;6.40;;;2.25;;
73120;SDS011;61307;49.628;-1.624;2023-03-11T18:51:37;4.35;;;2.67;;
73120;SDS011;61307;49.628;-1.624;2023-03-11T18:54:05;4.82;;;2.70;;
73120;SDS011;61307;49.628;-1.624;2023-03-11T18:56:32;4.25;;;2.47;;
73120;SDS011;61307;49.628;-1.624;2023-03-11T18:58:59;6.43;;;2.40;;
73120;SDS011;61307;49.628;-1.624;2023-03-11T19:01:26;6.18;;;2.55;;
73120;SDS011;61307;49.628;-1.624;2023-03-11T19:03:56;6.75;;;2.50;;
73120;SDS011;61307;49.628;-1.624;2023-03-11T19:06:24;4.88;;;2.70;;
73120;SDS011;61307;49.628;-1.624;2023-03-11T19:08:52;5.43;;;2.50;;
73120;SDS011;61307;49.628;-1.624;2023-03-11T19:11:21;8.23;;;2.88;;
73120;SDS011;61307;49.628;-1.624;2023-03-11T19:13:50;7.75;;;2.85;;
73120;SDS011;61307;49.628;-1.624;2023-03-11T19:16:18;5.57;;;2.80;;
73120;SDS011;61307;49.628;-1.624;2023-03-11T19:18:47;7.65;;;3.08;;
73120;SDS011;61307;49.628;-1.624;2023-03-11T19:21:17;7.78;;;3.40;;
73120;SDS011;61307;49.628;-1.624;2023-03-11T19:23:44;10.00;;;3.60;;
73120;SDS011;61307;49.628;-1.624;2023-03-11T19:26:13;14.48;;;3.63;;
73120;SDS011;61307;49.628;-1.624;2023-03-11T19:28:40;6.47;;;2.90;;
73120;SDS011;61307;49.628;-1.624;2023-03-11T19:31:07;11.00;;;3.25;;
73120;SDS011;61307;49.628;-1.624;2023-03-11T19:33:34;10.52;;;3.22;;
73120;SDS011;61307;49.628;-1.624;2023-03-11T19:36:02;7.20;;;3.05;;
73120;SDS011;61307;49.628;-1.624;2023-03-11T19:38:31;8.95;;;3.20;;
73120;SDS011;61307;49.628;-1.624;2023-03-11T19:40:59;10.98;;;3.17;;
73120;SDS011;61307;49.628;-1.624;2023-03-11T19:43:28;13.27;;;4.00;;
73120;SDS011;61307;49.628;-1.624;2023-03-11T19:45:55;13.18;;;3.75;;
73120;SDS011;61307;49.628;-1.624;2023-03-11T19:48:23;14.40;;;4.32;;
73120;SDS011;61307;49.628;-1.624;2023-03-11T19:50:50;11.70;;;3.50;;
73120;SDS011;61307;49.628;-1.624;2023-03-11T19:53:18;15.32;;;4.55;;
73120;SDS011;61307;49.628;-1.624;2023-03-11T19:55:48;16.67;;;4.22;;
73120;SDS011;61307;49.628;-1.624;2023-03-11T19:58:17;17.92;;;4.10;;
73120;SDS011;61307;49.628;-1.624;2023-03-11T20:00:44;13.60;;;3.88;;
73120;SDS011;61307;49.628;-1.624;2023-03-11T20:03:12;14.23;;;3.97;;
73120;SDS011;61307;49.628;-1.624;2023-03-11T20:05:40;14.70;;;4.35;;
73120;SDS011;61307;49.628;-1.624;2023-03-11T20:08:09;16.65;;;4.20;;
73120;SDS011;61307;49.628;-1.624;2023-03-11T20:10:38;14.05;;;4.18;;
73120;SDS011;61307;49.628;-1.624;2023-03-11T20:13:07;15.20;;;4.28;;
73120;SDS011;61307;49.628;-1.624;2023-03-11T20:15:35;15.00;;;4.28;;
73120;SDS011;61307;49.628;-1.624;2023-03-11T20:18:02;19.15;;;5.45;;
73120;SDS011;61307;49.628;-1.624;2023-03-11T20:20:30;15.52;;;4.45;;
73120;SDS011;61307;49.628;-1.624;2023-03-11T20:22:58;14.50;;;4.40;;
73120;SDS011;61307;49.628;-1.624;2023-03-11T20:25:26;18.55;;;4.32;;
73120;SDS011;61307;49.628;-1.624;2023-03-11T20:27:56;17.17;;;4.68;;
73120;SDS011;61307;49.628;-1.624;2023-03-11T20:30:25;15.25;;;4.25;;
73120;SDS011;61307;49.628;-1.624;2023-03-11T20:32:52;17.67;;;4.72;;
73120;SDS011;61307;49.628;-1.624;2023-03-11T20:35:20;16.48;;;5.00;;
73120;SDS011;61307;49.628;-1.624;2023-03-11T20:37:47;20.50;;;5.00;;
73120;SDS011;61307;49.628;-1.624;2023-03-11T20:40:15;20.30;;;5.00;;
73120;SDS011;61307;49.628;-1.624;2023-03-11T20:42:43;16.42;;;4.75;;
73120;SDS011;61307;49.628;-1.624;2023-03-11T20:45:12;22.23;;;5.13;;
73120;SDS011;61307;49.628;-1.624;2023-03-11T20:47:41;19.58;;;5.00;;
73120;SDS011;61307;49.628;-1.624;2023-03-11T20:50:10;20.50;;;5.93;;
73120;SDS011;61307;49.628;-1.624;2023-03-11T20:52:37;20.50;;;4.63;;
73120;SDS011;61307;49.628;-1.624;2023-03-11T20:55:05;16.27;;;4.32;;
73120;SDS011;61307;49.628;-1.624;2023-03-11T20:57:34;19.15;;;4.82;;
73120;SDS011;61307;49.628;-1.624;2023-03-11T21:00:02;19.70;;;4.65;;
73120;SDS011;61307;49.628;-1.624;2023-03-11T21:02:32;19.92;;;4.85;;
73120;SDS011;61307;49.628;-1.624;2023-03-11T21:05:01;21.90;;;4.82;;
73120;SDS011;61307;49.628;-1.624;2023-03-11T21:07:28;22.00;;;5.57;;
73120;SDS011;61307;49.628;-1.624;2023-03-11T21:09:55;19.20;;;4.95;;
73120;SDS011;61307;49.628;-1.624;2023-03-11T21:12:22;23.45;;;5.28;;
73120;SDS011;61307;49.628;-1.624;2023-03-11T21:14:49;20.08;;;5.38;;
73120;SDS011;61307;49.628;-1.624;2023-03-11T21:17:16;25.30;;;5.05;;
73120;SDS011;61307;49.628;-1.624;2023-03-11T21:19:43;19.35;;;5.07;;
73120;SDS011;61307;49.628;-1.624;2023-03-11T21:22:12;20.45;;;5.25;;
73120;SDS011;61307;49.628;-1.624;2023-03-11T21:24:39;21.08;;;6.22;;
73120;SDS011;61307;49.628;-1.624;2023-03-11T21:27:06;21.92;;;5.28;;
73120;SDS011;61307;49.628;-1.624;2023-03-11T21:29:33;24.83;;;5.35;;
73120;SDS011;61307;49.628;-1.624;2023-03-11T21:32:01;27.13;;;5.95;;
73120;SDS011;61307;49.628;-1.624;2023-03-11T21:34:28;24.30;;;5.65;;
73120;SDS011;61307;49.628;-1.624;2023-03-11T21:36:55;21.40;;;5.35;;
73120;SDS011;61307;49.628;-1.624;2023-03-11T21:39:24;26.70;;;5.97;;
73120;SDS011;61307;49.628;-1.624;2023-03-11T21:41:51;22.92;;;5.43;;
73120;SDS011;61307;49.628;-1.624;2023-03-11T21:44:20;21.90;;;4.95;;
73120;SDS011;61307;49.628;-1.624;2023-03-11T21:46:47;25.70;;;5.10;;
73120;SDS011;61307;49.628;-1.624;2023-03-11T21:49:14;22.08;;;5.18;;
73120;SDS011;61307;49.628;-1.624;2023-03-11T21:51:41;23.08;;;5.72;;
73120;SDS011;61307;49.628;-1.624;2023-03-11T21:54:09;27.65;;;6.05;;
73120;SDS011;61307;49.628;-1.624;2023-03-11T21:56:38;25.33;;;6.32;;
73120;SDS011;61307;49.628;-1.624;2023-03-11T21:59:05;25.17;;;4.93;;
73120;SDS011;61307;49.628;-1.624;2023-03-11T22:01:32;26.27;;;5.47;;
73120;SDS011;61307;49.628;-1.624;2023-03-11T22:04:00;25.08;;;5.68;;
73120;SDS011;61307;49.628;-1.624;2023-03-11T22:06:27;23.05;;;5.63;;
73120;SDS011;61307;49.628;-1.624;2023-03-11T22:08:57;24.20;;;5.28;;
73120;SDS011;61307;49.628;-1.624;2023-03-11T22:11:24;20.27;;;5.35;;
73120;SDS011;61307;49.628;-1.624;2023-03-11T22:13:53;26.30;;;6.03;;
73120;SDS011;61307;49.628;-1.624;2023-03-11T22:16:22;23.10;;;5.53;;
73120;SDS011;61307;49.628;-1.624;2023-03-11T22:18:49;25.15;;;6.13;;
73120;SDS011;61307;49.628;-1.624;2023-03-11T22:21:17;27.05;;;5.50;;
73120;SDS011;61307;49.628;-1.624;2023-03-11T22:23:46;29.40;;;6.05;;
73120;SDS011;61307;49.628;-1.624;2023-03-11T22:26:13;22.70;;;6.10;;
73120;SDS011;61307;49.628;-1.624;2023-03-11T22:28:41;25.10;;;4.80;;
73120;SDS011;61307;49.628;-1.624;2023-03-11T22:31:10;25.05;;;5.45;;
73120;SDS011;61307;49.628;-1.624;2023-03-11T22:33:39;24.25;;;5.97;;
73120;SDS011;61307;49.628;-1.624;2023-03-11T22:36:06;23.40;;;5.70;;
73120;SDS011;61307;49.628;-1.624;2023-03-11T22:38:34;25.92;;;5.38;;
73120;SDS011;61307;49.628;-1.624;2023-03-11T22:41:03;26.52;;;5.93;;
73120;SDS011;61307;49.628;-1.624;2023-03-11T22:43:31;26.23;;;5.55;;
73120;SDS011;61307;49.628;-1.624;2023-03-11T22:45:59;21.10;;;4.88;;
73120;SDS011;61307;49.628;-1.624;2023-03-11T22:48:27;25.25;;;5.43;;
73120;SDS011;61307;49.628;-1.624;2023-03-11T22:50:54;28.85;;;5.88;;
73120;SDS011;61307;49.628;-1.624;2023-03-11T22:53:22;27.00;;;5.90;;
73120;SDS011;61307;49.628;-1.624;2023-03-11T22:55:50;26.77;;;5.72;;
73120;SDS011;61307;49.628;-1.624;2023-03-11T22:58:17;26.55;;;5.65;;
73120;SDS011;61307;49.628;-1.624;2023-03-11T23:00:44;24.42;;;6.32;;
73120;SDS011;61307;49.628;-1.624;2023-03-11T23:03:12;28.63;;;6.40;;
73120;SDS011;61307;49.628;-1.624;2023-03-11T23:05:41;25.88;;;5.75;;
73120;SDS011;61307;49.628;-1.624;2023-03-11T23:08:10;19.15;;;5.20;;
73120;SDS011;61307;49.628;-1.624;2023-03-11T23:10:38;21.25;;;4.95;;
73120;SDS011;61307;49.628;-1.624;2023-03-11T23:13:06;30.15;;;6.13;;
73120;SDS011;61307;49.628;-1.624;2023-03-11T23:15:33;21.75;;;5.53;;
73120;SDS011;61307;49.628;-1.624;2023-03-11T23:18:00;27.50;;;6.82;;
73120;SDS011;61307;49.628;-1.624;2023-03-11T23:20:27;29.48;;;6.05;;
73120;SDS011;61307;49.628;-1.624;2023-03-11T23:22:56;27.05;;;6.07;;
73120;SDS011;61307;49.628;-1.624;2023-03-11T23:25:23;28.10;;;5.57;;
73120;SDS011;61307;49.628;-1.624;2023-03-11T23:27:50;29.27;;;6.45;;
73120;SDS011;61307;49.628;-1.624;2023-03-11T23:30:18;24.08;;;5.72;;
73120;SDS011;61307;49.628;-1.624;2023-03-11T23:32:45;24.88;;;5.85;;
73120;SDS011;61307;49.628;-1.624;2023-03-11T23:35:12;24.67;;;5.53;;
73120;SDS011;61307;49.628;-1.624;2023-03-11T23:37:39;20.58;;;5.68;;
73120;SDS011;61307;49.628;-1.624;2023-03-11T23:40:09;26.45;;;6.57;;
73120;SDS011;61307;49.628;-1.624;2023-03-11T23:42:36;25.60;;;5.47;;
73120;SDS011;61307;49.628;-1.624;2023-03-11T23:45:04;23.42;;;5.35;;
73120;SDS011;61307;49.628;-1.624;2023-03-11T23:47:32;25.38;;;6.18;;
73120;SDS011;61307;49.628;-1.624;2023-03-11T23:49:59;27.88;;;5.57;;
73120;SDS011;61307;49.628;-1.624;2023-03-11T23:52:26;24.90;;;6.07;;
73120;SDS011;61307;49.628;-1.624;2023-03-11T23:54:53;25.95;;;5.82;;
73120;SDS011;61307;49.628;-1.624;2023-03-11T23:57:22;23.73;;;5.95;;
73120;SDS011;61307;49.628;-1.624;2023-03-11T23:59:49;26.10;;;6.20;;
